Time,TemperatureF,DewpointF,PressureIn,WindDirection,WindDirectionDegrees,WindSpeedMPH,WindSpeedGustMPH,Humidity,HourlyPrecipIn,Conditions,Clouds,dailyrainin,SolarRadiationWatts/m^2,SoftwareType,DateUTC
2013-08-17 00:02:00,81.8,76.5,30.02,SE,143,1.0,2.0,84,0.00,,,0.00,0,Wunderground v.1.15,2013-08-17 04:02:00,
2013-08-17 00:07:00,81.8,76.5,30.02,SE,124,2.0,2.0,84,0.00,,,0.00,0,Wunderground v.1.15,2013-08-17 04:07:00,
2013-08-17 00:12:00,81.8,76.8,30.02,SE,124,1.0,1.0,85,0.00,,,0.00,0,Wunderground v.1.15,2013-08-17 04:12:00,
2013-08-17 00:17:00,81.8,76.5,30.02,West,272,2.0,2.0,84,0.00,,,0.00,0,Wunderground v.1.15,2013-08-17 04:17:00,
2013-08-17 00:22:00,81.8,76.5,30.02,SW,219,3.0,4.0,84,0.00,,,0.00,0,Wunderground v.1.15,2013-08-17 04:22:00,
2013-08-17 00:27:00,81.6,76.3,30.03,SW,234,3.0,4.0,84,0.00,,,0.00,0,Wunderground v.1.15,2013-08-17 04:27:00,
2013-08-17 00:32:00,81.6,76.3,30.03,West,265,2.0,2.0,84,0.00,,,0.00,0,Wunderground v.1.15,2013-08-17 04:32:00,
2013-08-17 00:37:00,81.4,76.1,30.04,NW,319,1.0,2.0,84,0.00,,,0.00,0,Wunderground v.1.15,2013-08-17 04:37:00,
2013-08-17 00:42:00,81.2,76.3,30.04,ENE,65,1.0,2.0,85,0.00,,,0.00,0,Wunderground v.1.15,2013-08-17 04:42:00,
2013-08-17 00:52:00,80.7,75.8,30.04,East,93,6.0,6.0,85,0.00,,,0.00,0,Wunderground v.1.15,2013-08-17 04:52:00,
2013-08-17 00:57:00,80.1,75.2,30.04,East,88,9.0,11.0,85,0.00,,,0.00,0,Wunderground v.1.15,2013-08-17 04:57:00,
2013-08-17 01:12:00,78.8,74.6,30.06,ESE,114,8.0,8.0,87,0.00,,,0.00,0,Wunderground v.1.15,2013-08-17 05:12:00,
2013-08-17 01:17:00,78.6,74.4,30.06,ESE,116,7.0,8.0,87,0.00,,,0.00,0,Wunderground v.1.15,2013-08-17 05:17:00,
2013-08-17 01:27:00,78.3,74.5,30.05,SE,141,5.0,5.0,88,0.00,,,0.00,0,Wunderground v.1.15,2013-08-17 05:27:00,
2013-08-17 01:32:00,78.1,74.3,30.05,SSE,160,3.0,5.0,88,0.96,,,0.03,0,Wunderground v.1.15,2013-08-17 05:32:00,
2013-08-17 01:42:00,77.9,74.1,30.05,SSE,148,1.0,1.0,88,0.07,,,0.04,0,Wunderground v.1.15,2013-08-17 05:42:00,
2013-08-17 01:47:00,77.7,73.9,30.04,NNE,13,0.0,1.0,88,0.06,,,0.05,0,Wunderground v.1.15,2013-08-17 05:47:00,
2013-08-17 01:57:00,77.6,74.1,30.03,NNE,13,0.0,1.0,89,0.07,,,0.06,0,Wunderground v.1.15,2013-08-17 05:57:00,
2013-08-17 02:02:00,77.4,73.9,30.02,NNE,13,0.0,0.0,89,0.06,,,0.06,0,Wunderground v.1.15,2013-08-17 06:02:00,
2013-08-17 02:07:00,77.4,73.9,30.02,NNE,13,0.0,2.0,89,0.04,,,0.06,0,Wunderground v.1.15,2013-08-17 06:07:00,
2013-08-17 02:17:00,77.2,74.0,30.02,NNE,13,0.0,0.0,90,0.00,,,0.06,0,Wunderground v.1.15,2013-08-17 06:17:00,
2013-08-17 02:27:00,77.2,74.0,30.01,NNE,13,0.0,0.0,90,0.00,,,0.06,0,Wunderground v.1.15,2013-08-17 06:27:00,
2013-08-17 02:32:00,77.0,73.8,30.02,NNE,13,0.0,0.0,90,0.00,,,0.06,0,Wunderground v.1.15,2013-08-17 06:32:00,
2013-08-17 02:37:00,77.2,74.0,30.01,NNE,13,0.0,0.0,90,0.00,,,0.06,0,Wunderground v.1.15,2013-08-17 06:37:00,
2013-08-17 02:47:00,77.2,74.0,30.01,NNE,13,0.0,1.0,90,0.00,,,0.06,0,Wunderground v.1.15,2013-08-17 06:47:00,
2013-08-17 02:52:00,77.2,74.4,30.01,West,267,1.0,1.0,91,0.00,,,0.06,0,Wunderground v.1.15,2013-08-17 06:52:00,
2013-08-17 03:02:00,77.2,74.4,30.01,West,267,0.0,0.0,91,0.00,,,0.06,0,Wunderground v.1.15,2013-08-17 07:02:00,
2013-08-17 03:12:00,77.2,74.4,30.01,West,268,0.0,0.0,91,0.00,,,0.06,0,Wunderground v.1.15,2013-08-17 07:12:00,
2013-08-17 03:22:00,77.2,74.4,30.01,West,267,0.0,0.0,91,0.00,,,0.06,0,Wunderground v.1.15,2013-08-17 07:22:00,
2013-08-17 03:32:00,77.2,74.7,30.01,West,267,0.0,0.0,92,0.00,,,0.06,0,Wunderground v.1.15,2013-08-17 07:32:00,
2013-08-17 03:42:00,77.4,74.9,30.00,West,267,0.0,0.0,92,0.00,,,0.06,0,Wunderground v.1.15,2013-08-17 07:42:00,
2013-08-17 03:47:00,77.4,74.9,30.00,West,264,0.0,0.0,92,0.00,,,0.06,0,Wunderground v.1.15,2013-08-17 07:47:00,
2013-08-17 03:57:00,77.4,74.9,30.00,West,264,0.0,0.0,92,0.00,,,0.06,0,Wunderground v.1.15,2013-08-17 07:57:00,
2013-08-17 04:07:00,77.4,75.2,30.00,SE,144,1.0,2.0,93,0.00,,,0.06,0,Wunderground v.1.15,2013-08-17 08:07:00,
2013-08-17 04:17:00,77.4,75.2,29.99,ESE,110,1.0,2.0,93,0.00,,,0.06,0,Wunderground v.1.15,2013-08-17 08:17:00,
2013-08-17 04:27:00,77.4,75.2,29.99,ESE,109,1.0,1.0,93,0.00,,,0.06,0,Wunderground v.1.15,2013-08-17 08:27:00,
2013-08-17 04:37:00,77.4,75.2,29.99,ESE,109,0.0,0.0,93,0.00,,,0.06,0,Wunderground v.1.15,2013-08-17 08:37:00,
2013-08-17 04:47:00,77.2,75.0,29.98,ESE,107,0.0,0.0,93,0.00,,,0.06,0,Wunderground v.1.15,2013-08-17 08:47:00,
2013-08-17 04:57:00,77.2,75.0,29.99,ESE,107,0.0,0.0,93,0.00,,,0.06,0,Wunderground v.1.15,2013-08-17 08:57:00,
2013-08-17 05:02:00,77.2,75.0,29.99,ESE,107,0.0,0.0,93,0.00,,,0.06,0,Wunderground v.1.15,2013-08-17 09:02:00,
2013-08-17 05:12:00,77.2,75.3,29.99,ESE,107,0.0,0.0,94,0.00,,,0.06,0,Wunderground v.1.15,2013-08-17 09:12:00,
2013-08-17 05:17:00,77.2,75.3,29.99,ESE,107,0.0,0.0,94,0.00,,,0.06,0,Wunderground v.1.15,2013-08-17 09:17:00,
2013-08-17 05:27:00,77.2,75.3,29.99,ESE,107,0.0,0.0,94,0.00,,,0.06,0,Wunderground v.1.15,2013-08-17 09:27:00,
2013-08-17 05:32:00,77.2,75.3,29.99,ESE,106,0.0,0.0,94,0.00,,,0.06,0,Wunderground v.1.15,2013-08-17 09:32:00,
2013-08-17 05:42:00,77.2,75.3,29.99,ESE,107,0.0,0.0,94,0.00,,,0.06,0,Wunderground v.1.15,2013-08-17 09:42:00,
2013-08-17 05:52:00,77.0,75.1,29.99,ESE,106,0.0,0.0,94,0.00,,,0.06,0,Wunderground v.1.15,2013-08-17 09:52:00,
2013-08-17 05:57:00,77.0,75.1,29.99,ESE,106,0.0,0.0,94,0.00,,,0.06,0,Wunderground v.1.15,2013-08-17 09:57:00,
2013-08-17 06:07:00,77.0,75.1,29.99,ESE,106,0.0,0.0,94,0.00,,,0.06,0,Wunderground v.1.15,2013-08-17 10:07:00,
2013-08-17 06:12:00,77.0,75.1,29.99,ESE,106,0.0,0.0,94,0.00,,,0.06,0,Wunderground v.1.15,2013-08-17 10:12:00,
2013-08-17 06:22:00,77.0,75.1,30.00,ESE,106,1.0,1.0,94,0.00,,,0.06,0,Wunderground v.1.15,2013-08-17 10:22:00,
2013-08-17 06:32:00,77.2,75.3,30.00,ESE,106,0.0,0.0,94,0.00,,,0.06,0,Wunderground v.1.15,2013-08-17 10:32:00,
2013-08-17 06:42:00,77.2,75.3,30.00,ESE,106,0.0,0.0,94,0.00,,,0.06,0,Wunderground v.1.15,2013-08-17 10:42:00,
2013-08-17 06:52:00,77.4,75.5,30.01,ESE,106,0.0,0.0,94,0.00,,,0.06,0,Wunderground v.1.15,2013-08-17 10:52:00,
2013-08-17 06:57:00,77.4,75.9,30.01,ESE,106,0.0,0.0,95,0.00,,,0.06,0,Wunderground v.1.15,2013-08-17 10:57:00,
2013-08-17 07:07:00,77.4,75.9,30.01,ESE,106,1.0,2.0,95,0.00,,,0.06,0,Wunderground v.1.15,2013-08-17 11:07:00,
2013-08-17 07:17:00,77.4,75.9,30.01,ESE,106,2.0,4.0,95,0.00,,,0.06,5,Wunderground v.1.15,2013-08-17 11:17:00,
2013-08-17 07:27:00,77.4,75.9,30.01,East,93,2.0,3.0,95,0.00,,,0.06,12,Wunderground v.1.15,2013-08-17 11:27:00,
2013-08-17 07:32:00,77.4,75.9,30.02,East,97,2.0,2.0,95,0.00,,,0.06,19,Wunderground v.1.15,2013-08-17 11:32:00,
2013-08-17 07:42:00,77.4,75.9,30.02,East,96,1.0,2.0,95,0.00,,,0.06,30,Wunderground v.1.15,2013-08-17 11:42:00,
2013-08-17 07:47:00,77.4,75.9,30.02,East,96,1.0,2.0,95,0.00,,,0.06,33,Wunderground v.1.15,2013-08-17 11:47:00,
2013-08-17 07:57:00,77.7,76.2,30.02,East,96,1.0,1.0,95,0.00,,,0.06,49,Wunderground v.1.15,2013-08-17 11:57:00,
2013-08-17 08:02:00,77.7,76.2,30.02,East,96,1.0,3.0,95,0.00,,,0.06,63,Wunderground v.1.15,2013-08-17 12:02:00,
2013-08-17 08:12:00,78.1,76.6,30.02,East,96,1.0,1.0,95,0.00,,,0.06,83,Wunderground v.1.15,2013-08-17 12:12:00,
2013-08-17 08:22:00,78.5,76.9,30.03,East,93,1.0,2.0,95,0.00,,,0.06,88,Wunderground v.1.15,2013-08-17 12:22:00,
2013-08-17 08:27:00,78.5,76.9,30.03,East,96,2.0,2.0,95,0.00,,,0.06,90,Wunderground v.1.15,2013-08-17 12:27:00,
2013-08-17 08:32:00,78.6,76.7,30.03,East,95,2.0,2.0,94,0.00,,,0.06,99,Wunderground v.1.15,2013-08-17 12:32:00,
2013-08-17 08:37:00,78.6,76.7,30.03,East,82,2.0,2.0,94,0.00,,,0.06,132,Wunderground v.1.15,2013-08-17 12:37:00,
2013-08-17 08:47:00,79.8,77.9,30.03,East,89,3.0,3.0,94,0.00,,,0.06,359,Wunderground v.1.15,2013-08-17 12:47:00,
2013-08-17 08:52:00,80.3,77.8,30.03,ESE,102,4.0,4.0,92,0.00,,,0.06,357,Wunderground v.1.15,2013-08-17 12:52:00,
2013-08-17 09:02:00,81.4,78.2,30.03,East,95,3.0,5.0,90,0.00,,,0.06,343,Wunderground v.1.15,2013-08-17 13:02:00,
2013-08-17 09:12:00,81.8,77.9,30.02,ESE,113,4.0,4.0,88,0.00,,,0.06,269,Wunderground v.1.15,2013-08-17 13:12:00,
2013-08-17 09:22:00,82.4,77.8,30.02,SE,126,5.0,5.0,86,0.00,,,0.06,350,Wunderground v.1.15,2013-08-17 13:22:00,
2013-08-17 09:27:00,82.8,78.2,30.03,ESE,120,5.0,6.0,86,0.00,,,0.06,479,Wunderground v.1.15,2013-08-17 13:27:00,
2013-08-17 09:37:00,83.6,78.2,30.03,SE,145,4.0,4.0,84,0.00,,,0.06,521,Wunderground v.1.15,2013-08-17 13:37:00,
2013-08-17 09:47:00,84.1,78.7,30.03,ESE,120,5.0,9.0,84,0.00,,,0.06,595,Wunderground v.1.15,2013-08-17 13:47:00,
2013-08-17 09:57:00,84.7,78.2,30.02,East,100,6.0,8.0,81,0.00,,,0.06,556,Wunderground v.1.15,2013-08-17 13:57:00,
2013-08-17 10:07:00,83.8,77.3,30.02,SE,143,6.0,6.0,81,0.00,,,0.06,287,Wunderground v.1.15,2013-08-17 14:07:00,
2013-08-17 10:12:00,83.8,77.7,30.02,ESE,106,5.0,5.0,82,0.00,,,0.06,229,Wunderground v.1.15,2013-08-17 14:12:00,
2013-08-17 10:17:00,83.8,77.7,30.03,ESE,123,4.0,5.0,82,0.00,,,0.06,222,Wunderground v.1.15,2013-08-17 14:17:00,
2013-08-17 10:27:00,83.6,77.5,30.03,ESE,104,6.0,6.0,82,0.00,,,0.06,264,Wunderground v.1.15,2013-08-17 14:27:00,
2013-08-17 10:37:00,84.1,77.6,30.03,SE,141,5.0,6.0,81,0.00,,,0.06,310,Wunderground v.1.15,2013-08-17 14:37:00,
2013-08-17 10:42:00,84.3,77.5,30.03,ESE,119,5.0,5.0,80,0.00,,,0.06,345,Wunderground v.1.15,2013-08-17 14:42:00,
2013-08-17 10:52:00,85.1,78.2,30.04,ESE,121,7.0,7.0,80,0.00,,,0.06,565,Wunderground v.1.15,2013-08-17 14:52:00,
2013-08-17 10:57:00,85.3,78.4,30.03,ESE,102,6.0,7.0,80,0.00,,,0.06,547,Wunderground v.1.15,2013-08-17 14:57:00,
2013-08-17 11:07:00,85.5,78.2,30.03,ESE,109,6.0,7.0,79,0.00,,,0.06,556,Wunderground v.1.15,2013-08-17 15:07:00,
2013-08-17 11:17:00,85.5,78.2,30.04,SE,138,6.0,8.0,79,0.00,,,0.06,377,Wunderground v.1.15,2013-08-17 15:17:00,
2013-08-17 11:27:00,85.7,77.7,30.04,East,92,6.0,6.0,77,0.00,,,0.06,294,Wunderground v.1.15,2013-08-17 15:27:00,
2013-08-17 11:37:00,85.5,77.1,30.04,SE,126,7.0,11.0,76,0.00,,,0.06,413,Wunderground v.1.15,2013-08-17 15:37:00,
2013-08-17 11:42:00,86.7,78.2,30.04,ESE,117,6.0,6.0,76,0.00,,,0.06,864,Wunderground v.1.15,2013-08-17 15:42:00,
2013-08-17 11:52:00,88.6,77.6,30.04,SSW,203,7.0,7.0,70,0.00,,,0.06,908,Wunderground v.1.15,2013-08-17 15:52:00,
2013-08-17 12:02:00,88.6,76.7,30.04,ESE,116,7.0,8.0,68,0.00,,,0.06,918,Wunderground v.1.15,2013-08-17 16:02:00,
2013-08-17 12:12:00,88.8,77.3,30.04,SE,141,8.0,13.0,69,0.00,,,0.06,948,Wunderground v.1.15,2013-08-17 16:12:00,
2013-08-17 12:17:00,88.2,75.9,30.04,SE,141,9.0,13.0,67,0.00,,,0.06,746,Wunderground v.1.15,2013-08-17 16:17:00,
2013-08-17 12:27:00,88.4,75.6,30.03,ESE,112,8.0,9.0,66,0.00,,,0.06,760,Wunderground v.1.15,2013-08-17 16:27:00,
2013-08-17 12:32:00,88.8,76.9,30.03,ESE,120,7.0,7.0,68,0.00,,,0.06,873,Wunderground v.1.15,2013-08-17 16:32:00,
2013-08-17 12:42:00,89.7,76.8,30.03,SE,127,6.0,16.0,66,0.00,,,0.06,961,Wunderground v.1.15,2013-08-17 16:42:00,
2013-08-17 12:52:00,89.5,76.6,30.03,South,188,8.0,10.0,66,0.00,,,0.06,971,Wunderground v.1.15,2013-08-17 16:52:00,
2013-08-17 13:02:00,90.3,77.4,30.03,SSE,155,6.0,6.0,66,0.00,,,0.06,1005,Wunderground v.1.15,2013-08-17 17:02:00,
2013-08-17 13:07:00,89.7,75.4,30.03,SE,133,7.0,7.0,63,0.00,,,0.06,195,Wunderground v.1.15,2013-08-17 17:07:00,
2013-08-17 13:12:00,90.1,77.2,30.02,South,175,6.0,6.0,66,0.00,,,0.06,1105,Wunderground v.1.15,2013-08-17 17:12:00,
2013-08-17 13:22:00,89.9,77.5,30.02,East,96,7.0,9.0,67,0.00,,,0.06,1033,Wunderground v.1.15,2013-08-17 17:22:00,
2013-08-17 13:32:00,90.3,76.0,30.02,ESE,119,8.0,10.0,63,0.00,,,0.06,1045,Wunderground v.1.15,2013-08-17 17:32:00,
2013-08-17 13:37:00,91.2,77.8,30.02,ESE,120,8.0,10.0,65,0.00,,,0.06,1065,Wunderground v.1.15,2013-08-17 17:37:00,
2013-08-17 13:47:00,91.0,77.1,30.01,SSE,152,6.0,7.0,64,0.00,,,0.06,1038,Wunderground v.1.15,2013-08-17 17:47:00,
2013-08-17 13:52:00,91.0,76.2,30.01,SE,127,7.0,8.0,62,0.00,,,0.06,331,Wunderground v.1.15,2013-08-17 17:52:00,
2013-08-17 14:02:00,89.9,77.0,30.01,SE,131,6.0,7.0,66,0.00,,,0.06,362,Wunderground v.1.15,2013-08-17 18:02:00,
2013-08-17 14:12:00,89.7,76.8,30.01,ESE,107,6.0,9.0,66,0.00,,,0.06,1281,Wunderground v.1.15,2013-08-17 18:12:00,
2013-08-17 14:17:00,90.1,75.8,30.01,SE,141,7.0,9.0,63,0.00,,,0.06,1281,Wunderground v.1.15,2013-08-17 18:17:00,
2013-08-17 14:27:00,90.1,76.3,30.00,SE,131,6.0,7.0,64,0.00,,,0.06,788,Wunderground v.1.15,2013-08-17 18:27:00,
2013-08-17 14:37:00,91.6,76.7,30.00,SE,127,5.0,8.0,62,0.00,,,0.06,253,Wunderground v.1.15,2013-08-17 18:37:00,
2013-08-17 14:47:00,91.8,76.9,29.99,East,83,7.0,7.0,62,0.00,,,0.06,1049,Wunderground v.1.15,2013-08-17 18:47:00,
2013-08-17 14:57:00,92.5,77.6,29.98,SE,137,5.0,9.0,62,0.00,,,0.06,391,Wunderground v.1.15,2013-08-17 18:57:00,
2013-08-17 15:02:00,91.6,76.7,29.98,SSE,161,5.0,5.0,62,0.00,,,0.06,391,Wunderground v.1.15,2013-08-17 19:02:00,
2013-08-17 15:12:00,91.8,76.9,29.98,SE,127,4.0,4.0,62,0.00,,,0.06,890,Wunderground v.1.15,2013-08-17 19:12:00,
2013-08-17 15:22:00,92.5,76.6,29.98,SE,126,5.0,11.0,60,0.00,,,0.06,220,Wunderground v.1.15,2013-08-17 19:22:00,
2013-08-17 15:32:00,91.2,76.8,29.98,SE,136,4.0,4.0,63,0.00,,,0.06,934,Wunderground v.1.15,2013-08-17 19:32:00,
2013-08-17 15:42:00,92.1,77.2,29.98,SW,227,4.0,6.0,62,0.00,,,0.06,412,Wunderground v.1.15,2013-08-17 19:42:00,
2013-08-17 15:47:00,91.6,76.7,29.98,SSE,164,4.0,8.0,62,0.00,,,0.06,223,Wunderground v.1.15,2013-08-17 19:47:00,
2013-08-17 15:57:00,92.1,78.2,29.97,WSW,241,6.0,7.0,64,0.00,,,0.06,860,Wunderground v.1.15,2013-08-17 19:57:00,
2013-08-17 16:02:00,92.7,78.7,29.97,SW,224,6.0,6.0,64,0.00,,,0.06,811,Wunderground v.1.15,2013-08-17 20:02:00,
2013-08-17 16:12:00,92.9,79.4,29.98,SSW,203,4.0,4.0,65,0.00,,,0.06,830,Wunderground v.1.15,2013-08-17 20:12:00,
2013-08-17 16:22:00,91.8,78.4,29.97,SW,217,6.0,7.0,65,0.00,,,0.06,447,Wunderground v.1.15,2013-08-17 20:22:00,
2013-08-17 16:27:00,91.4,78.0,29.97,SSE,160,5.0,7.0,65,0.00,,,0.06,611,Wunderground v.1.15,2013-08-17 20:27:00,
2013-08-17 16:37:00,91.4,78.4,29.97,SSE,165,6.0,7.0,66,0.00,,,0.06,892,Wunderground v.1.15,2013-08-17 20:37:00,
2013-08-17 16:47:00,92.3,78.8,29.98,SE,138,7.0,11.0,65,0.00,,,0.06,765,Wunderground v.1.15,2013-08-17 20:47:00,
2013-08-17 16:57:00,86.1,73.0,29.99,East,88,10.0,10.0,65,0.00,,,0.06,227,Wunderground v.1.15,2013-08-17 20:57:00,
2013-08-17 17:07:00,85.9,72.8,29.98,East,96,6.0,10.0,65,0.00,,,0.06,755,Wunderground v.1.15,2013-08-17 21:07:00,
2013-08-17 17:17:00,86.7,72.6,29.97,East,79,5.0,5.0,63,0.00,,,0.06,697,Wunderground v.1.15,2013-08-17 21:17:00,
2013-08-17 17:27:00,88.0,73.8,29.98,East,93,2.0,4.0,63,0.00,,,0.06,653,Wunderground v.1.15,2013-08-17 21:27:00,
2013-08-17 17:37:00,88.8,75.0,29.98,SE,140,2.0,3.0,64,0.00,,,0.06,614,Wunderground v.1.15,2013-08-17 21:37:00,
2013-08-17 17:47:00,90.1,74.8,29.98,SE,136,3.0,5.0,61,0.00,,,0.06,549,Wunderground v.1.15,2013-08-17 21:47:00,
2013-08-17 17:57:00,91.2,72.8,29.98,SW,229,3.0,3.0,55,0.00,,,0.06,484,Wunderground v.1.15,2013-08-17 21:57:00,
2013-08-17 18:07:00,90.7,74.4,29.99,ESE,107,3.0,8.0,59,0.00,,,0.06,454,Wunderground v.1.15,2013-08-17 22:07:00,
2013-08-17 18:17:00,88.4,72.2,29.98,East,97,8.0,11.0,59,0.00,,,0.06,384,Wunderground v.1.15,2013-08-17 22:17:00,
2013-08-17 18:22:00,87.6,72.5,29.98,East,92,7.0,7.0,61,0.00,,,0.06,299,Wunderground v.1.15,2013-08-17 22:22:00,
2013-08-17 18:32:00,87.2,72.1,29.99,SE,130,7.0,7.0,61,0.00,,,0.06,338,Wunderground v.1.15,2013-08-17 22:32:00,
2013-08-17 18:42:00,87.2,73.1,30.00,ESE,103,6.0,6.0,63,0.00,,,0.06,315,Wunderground v.1.15,2013-08-17 22:42:00,
2013-08-17 18:52:00,87.2,71.6,30.01,ESE,121,7.0,7.0,60,0.00,,,0.06,271,Wunderground v.1.15,2013-08-17 22:52:00,
2013-08-17 19:02:00,87.4,73.7,30.01,SE,133,6.0,6.0,64,0.00,,,0.06,232,Wunderground v.1.15,2013-08-17 23:02:00,
2013-08-17 19:12:00,87.0,72.9,30.01,SE,134,4.0,6.0,63,0.00,,,0.06,130,Wunderground v.1.15,2013-08-17 23:12:00,
2013-08-17 19:22:00,87.0,73.8,30.02,South,171,3.0,3.0,65,0.00,,,0.06,118,Wunderground v.1.15,2013-08-17 23:22:00,
2013-08-17 19:32:00,87.0,72.9,30.02,SSE,162,2.0,2.0,63,0.00,,,0.06,99,Wunderground v.1.15,2013-08-17 23:32:00,
2013-08-17 19:42:00,87.0,73.3,30.03,South,178,2.0,2.0,64,0.00,,,0.06,79,Wunderground v.1.15,2013-08-17 23:42:00,
2013-08-17 19:52:00,86.7,73.1,30.03,ESE,110,4.0,4.0,64,0.00,,,0.06,56,Wunderground v.1.15,2013-08-17 23:52:00,
2013-08-17 19:57:00,86.7,73.1,30.03,ESE,102,3.0,4.0,64,0.00,,,0.06,35,Wunderground v.1.15,2013-08-17 23:57:00,
2013-08-17 20:07:00,86.3,73.1,30.02,ESE,117,4.0,4.0,65,0.00,,,0.06,18,Wunderground v.1.15,2013-08-18 00:07:00,
2013-08-17 20:12:00,85.9,72.8,30.02,East,97,4.0,4.0,65,0.00,,,0.06,0,Wunderground v.1.15,2013-08-18 00:12:00,
2013-08-17 20:17:00,85.7,73.0,30.02,East,82,3.0,5.0,66,0.00,,,0.06,0,Wunderground v.1.15,2013-08-18 00:17:00,
2013-08-17 20:27:00,85.1,72.9,30.04,SE,130,4.0,6.0,67,0.00,,,0.06,0,Wunderground v.1.15,2013-08-18 00:27:00,
2013-08-17 20:32:00,84.7,73.0,30.04,East,100,4.0,4.0,68,0.00,,,0.06,0,Wunderground v.1.15,2013-08-18 00:32:00,
2013-08-17 20:42:00,84.5,73.6,30.04,ESE,102,4.0,4.0,70,0.00,,,0.06,0,Wunderground v.1.15,2013-08-18 00:42:00,
2013-08-17 20:52:00,84.1,73.7,30.05,ESE,116,6.0,7.0,71,0.00,,,0.06,0,Wunderground v.1.15,2013-08-18 00:52:00,
2013-08-17 21:02:00,83.8,73.4,30.05,SE,131,7.0,7.0,71,0.00,,,0.06,0,Wunderground v.1.15,2013-08-18 01:02:00,
2013-08-17 21:07:00,83.8,73.8,30.06,SE,143,6.0,11.0,72,0.00,,,0.06,0,Wunderground v.1.15,2013-08-18 01:07:00,
2013-08-17 21:17:00,83.4,73.4,30.06,SSW,208,7.0,9.0,72,0.00,,,0.06,0,Wunderground v.1.15,2013-08-18 01:17:00,
2013-08-17 21:22:00,82.8,72.4,30.06,SSW,208,6.0,6.0,71,0.00,,,0.06,0,Wunderground v.1.15,2013-08-18 01:22:00,
2013-08-17 21:32:00,82.0,71.7,30.06,South,185,4.0,4.0,71,0.00,,,0.06,0,Wunderground v.1.15,2013-08-18 01:32:00,
2013-08-17 21:42:00,81.8,72.7,30.07,South,184,1.0,2.0,74,0.00,,,0.06,0,Wunderground v.1.15,2013-08-18 01:42:00,
2013-08-17 21:47:00,81.6,72.9,30.07,South,184,0.0,2.0,75,0.00,,,0.07,0,Wunderground v.1.15,2013-08-18 01:47:00,
2013-08-17 21:57:00,81.2,73.3,30.06,South,184,0.0,0.0,77,0.08,,,0.08,0,Wunderground v.1.15,2013-08-18 01:57:00,
2013-08-17 22:02:00,80.9,73.4,30.07,South,184,0.0,0.0,78,0.08,,,0.09,0,Wunderground v.1.15,2013-08-18 02:02:00,
2013-08-17 22:12:00,80.7,74.0,30.07,South,182,0.0,0.0,80,0.11,,,0.11,0,Wunderground v.1.15,2013-08-18 02:12:00,
2013-08-17 22:22:00,79.8,73.8,30.06,SSE,150,2.0,3.0,82,0.11,,,0.13,0,Wunderground v.1.15,2013-08-18 02:22:00,
2013-08-17 22:32:00,79.0,73.7,30.06,SSE,150,2.0,2.0,84,0.09,,,0.14,0,Wunderground v.1.15,2013-08-18 02:32:00,
2013-08-17 22:37:00,78.8,73.9,30.06,SSE,150,1.0,2.0,85,0.05,,,0.14,0,Wunderground v.1.15,2013-08-18 02:37:00,
2013-08-17 22:47:00,78.5,74.0,30.06,SSE,151,0.0,0.0,86,0.05,,,0.15,0,Wunderground v.1.15,2013-08-18 02:47:00,
2013-08-17 22:57:00,78.5,74.3,30.06,SSE,151,0.0,0.0,87,0.00,,,0.15,0,Wunderground v.1.15,2013-08-18 02:57:00,
2013-08-17 23:07:00,78.3,74.5,30.05,SSE,152,0.0,0.0,88,0.00,,,0.15,0,Wunderground v.1.15,2013-08-18 03:07:00,
2013-08-17 23:12:00,78.3,74.8,30.05,ENE,58,1.0,2.0,89,0.00,,,0.15,0,Wunderground v.1.15,2013-08-18 03:12:00,
2013-08-17 23:22:00,78.1,74.6,30.05,ENE,61,1.0,3.0,89,0.00,,,0.15,0,Wunderground v.1.15,2013-08-18 03:22:00,
2013-08-17 23:32:00,78.1,74.9,30.06,ENE,61,1.0,1.0,90,0.00,,,0.15,0,Wunderground v.1.15,2013-08-18 03:32:00,
2013-08-17 23:42:00,78.1,74.9,30.07,ENE,61,0.0,0.0,90,0.00,,,0.15,0,Wunderground v.1.15,2013-08-18 03:42:00,
2013-08-17 23:52:00,78.1,75.3,30.07,ENE,61,0.0,0.0,91,0.00,,,0.15,0,Wunderground v.1.15,2013-08-18 03:52:00,
2013-08-17 23:57:00,78.1,75.3,30.07,ENE,61,0.0,0.0,91,0.00,,,0.15,0,Wunderground v.1.15,2013-08-18 03:57:00,